Terminal Aerodrome Forecast
Issued by NWS

Home | Current Version | Previous Version | Graphics & Text | Print | Product List | Glossary On
Versions: 1 2 3 4 5 6 7 8 9 10 11 12 13 14 15
926
FTUS43 KGRB 051135
TAFMTW
TAF
KMTW 051135Z 0512/0612 27006KT P6SM SCT050
      TEMPO 0512/0515 -SHSN SCT025 BKN050
     FM051900 26005KT P6SM SCT100 BKN200
     FM052200 24005KT P6SM BKN070
     FM060600 22005KT 6SM -SN SCT025 BKN050=

USA.gov is the U.S. government's official web portal to all federal, state and local government web resources and services.